Time;durP1;ratioP1;P1;durP2;ratioP2;P2;SDS_P1;SDS_P2;PMS_P1;PMS_P2;Temp;Humidity;BMP_temperature;BMP_pressure;BME280_temperature;BME280_humidity;BME280_pressure;Samples;Min_cycle;Max_cycle;Signal;HPM_P1;HPM_P2
2023/09/06 00:01:39;;;;;;;;;;;26.60;74.00;;;;;;5095308;28;19920;-34
2023/09/06 00:04:05;;;;;;;;;;;26.60;72.80;;;;;;5104215;28;20114;-33
2023/09/06 00:06:31;;;;;;;;;;;26.50;72.60;;;;;;5091595;28;19959;-34
2023/09/06 00:08:57;;;;;;;;;;;26.50;72.70;;;;;;5095645;28;19916;-34
2023/09/06 00:11:24;;;;;;;;;;;26.50;73.10;;;;;;5094299;28;19917;-34
2023/09/06 00:13:50;;;;;;;;;;;26.50;73.30;;;;;;5086188;28;19936;-34
2023/09/06 00:16:17;;;;;;;;;;;26.50;73.40;;;;;;5090657;28;19916;-34
2023/09/06 00:18:42;;;;;;;;;;;26.50;73.50;;;;;;5094799;28;19954;-34
2023/09/06 00:21:08;;;;;;;;;;;26.50;73.60;;;;;;5089055;28;19917;-34
2023/09/06 00:23:34;;;;;;;;;;;26.50;73.50;;;;;;5098906;28;19913;-33
2023/09/06 00:26:00;;;;;;;;;;;26.50;73.70;;;;;;5088211;28;19913;-34
2023/09/06 00:28:26;;;;;;;;;;;26.50;73.80;;;;;;5095628;28;19921;-34
2023/09/06 00:30:52;;;;;;;;;;;26.50;74.00;;;;;;5093183;28;20436;-34
2023/09/06 00:33:18;;;;;;;;;;;26.50;74.20;;;;;;5100222;28;19987;-34
2023/09/06 00:35:44;;;;;;;;;;;26.50;74.20;;;;;;5097307;28;19928;-33
2023/09/06 00:38:10;;;;;;;;;;;26.50;74.30;;;;;;5091330;28;19938;-34
2023/09/06 00:40:37;;;;;;;;;;;26.50;74.30;;;;;;5087800;28;19932;-33
2023/09/06 00:43:03;;;;;;;;;;;26.50;74.40;;;;;;5095689;28;19916;-33
2023/09/06 00:45:32;;;;;;;;;;;26.50;74.20;;;;;;5103843;28;19912;-34
2023/09/06 00:47:59;;;;;;;;;;;26.50;74.00;;;;;;5098890;28;19912;-34
2023/09/06 00:50:26;;;;;;;;;;;26.50;73.90;;;;;;5092886;28;19915;-33
2023/09/06 00:52:52;;;;;;;;;;;26.50;74.10;;;;;;5092181;28;19955;-34
2023/09/06 00:55:18;;;;;;;;;;;26.40;74.20;;;;;;5093073;28;19919;-33
2023/09/06 00:57:44;;;;;;;;;;;26.40;74.20;;;;;;5101367;28;19916;-34
2023/09/06 01:00:17;;;;;;;;;;;26.40;74.40;;;;;;5099906;28;20046;-34
2023/09/06 01:02:44;;;;;;;;;;;26.40;74.50;;;;;;5099301;28;19924;-33
2023/09/06 01:05:10;;;;;;;;;;;26.40;74.50;;;;;;5095318;28;19908;-34
2023/09/06 01:07:37;;;;;;;;;;;26.40;74.50;;;;;;5090263;28;19921;-33
2023/09/06 01:10:03;;;;;;;;;;;26.40;74.60;;;;;;5090656;28;19912;-34
2023/09/06 01:12:29;;;;;;;;;;;26.40;74.60;;;;;;5077524;28;19947;-34
2023/09/06 01:14:55;;;;;;;;;;;26.40;74.60;;;;;;5105858;28;19928;-34
2023/09/06 01:17:21;;;;;;;;;;;26.40;74.60;;;;;;5086016;28;19909;-34
2023/09/06 01:19:47;;;;;;;;;;;26.40;74.60;;;;;;5070117;28;19912;-34
2023/09/06 01:22:17;;;;;;;;;;;26.40;74.50;;;;;;5104925;28;20397;-33
2023/09/06 01:24:43;;;;;;;;;;;26.40;74.50;;;;;;5099694;28;19913;-34
2023/09/06 01:27:09;;;;;;;;;;;26.40;74.50;;;;;;5092370;28;19923;-34
2023/09/06 01:29:35;;;;;;;;;;;26.40;74.60;;;;;;5100690;28;19942;-34
2023/09/06 01:32:03;;;;;;;;;;;26.30;74.50;;;;;;5087700;28;19948;-34
2023/09/06 01:34:29;;;;;;;;;;;26.30;74.30;;;;;;5090427;28;19924;-34
2023/09/06 01:36:55;;;;;;;;;;;26.30;74.40;;;;;;5094733;28;19912;-34
2023/09/06 01:39:21;;;;;;;;;;;26.30;74.40;;;;;;5088048;28;19919;-34
2023/09/06 01:41:47;;;;;;;;;;;26.30;74.30;;;;;;5100652;28;19917;-34
2023/09/06 01:44:14;;;;;;;;;;;26.30;74.20;;;;;;5091909;28;20281;-34
2023/09/06 01:46:40;;;;;;;;;;;26.30;74.20;;;;;;5088435;28;20451;-34
2023/09/06 01:49:08;;;;;;;;;;;26.30;74.10;;;;;;5085546;28;19917;-34
2023/09/06 01:51:35;;;;;;;;;;;26.30;74.20;;;;;;5092903;28;19918;-34
2023/09/06 01:54:04;;;;;;;;;;;26.30;74.10;;;;;;5091457;28;20274;-34
2023/09/06 01:56:30;;;;;;;;;;;26.30;74.00;;;;;;5100473;28;19923;-34
2023/09/06 01:58:56;;;;;;;;;;;26.30;73.90;;;;;;5094624;28;19920;-34
2023/09/06 02:01:22;;;;;;;;;;;26.30;73.90;;;;;;5092809;28;19924;-34
2023/09/06 02:03:48;;;;;;;;;;;26.30;73.90;;;;;;5092626;28;19944;-34
2023/09/06 02:06:15;;;;;;;;;;;26.30;73.80;;;;;;5087344;28;19963;-34
2023/09/06 02:08:41;;;;;;;;;;;26.30;73.90;;;;;;5090751;28;19921;-34
2023/09/06 02:11:07;;;;;;;;;;;26.20;73.80;;;;;;5084132;28;19912;-34
2023/09/06 02:13:33;;;;;;;;;;;26.20;73.70;;;;;;5098676;28;19947;-34
2023/09/06 02:16:01;;;;;;;;;;;26.20;73.80;;;;;;5084755;28;19912;-34
2023/09/06 02:18:27;;;;;;;;;;;26.20;73.70;;;;;;5111951;28;19916;-34
2023/09/06 02:20:56;;;;;;;;;;;26.20;73.60;;;;;;5085974;28;19984;-34
2023/09/06 02:23:22;;;;;;;;;;;26.20;73.80;;;;;;5092773;28;19935;-34
2023/09/06 02:25:48;;;;;;;;;;;26.20;73.60;;;;;;5094873;28;19922;-34
2023/09/06 02:28:17;;;;;;;;;;;26.20;73.60;;;;;;5094610;28;19916;-34
2023/09/06 02:30:43;;;;;;;;;;;26.20;73.70;;;;;;5094416;28;19917;-34
2023/09/06 02:33:14;;;;;;;;;;;26.20;73.70;;;;;;5092760;28;19924;-33
2023/09/06 02:35:44;;;;;;;;;;;26.20;73.60;;;;;;5094922;28;20194;-34
2023/09/06 02:38:10;;;;;;;;;;;26.10;73.80;;;;;;5100072;28;19912;-34
2023/09/06 02:40:36;;;;;;;;;;;26.10;73.90;;;;;;5090816;28;20797;-34
2023/09/06 02:43:03;;;;;;;;;;;26.10;73.90;;;;;;5082565;28;19927;-34
2023/09/06 02:45:38;;;;;;;;;;;26.10;74.00;;;;;;5100721;28;19912;-34
2023/09/06 02:48:07;;;;;;;;;;;26.10;74.10;;;;;;5094704;28;19919;-34
2023/09/06 02:50:36;;;;;;;;;;;26.10;74.10;;;;;;5095164;28;19912;-34
2023/09/06 02:53:03;;;;;;;;;;;26.10;74.10;;;;;;5089224;28;20410;-34
2023/09/06 02:55:29;;;;;;;;;;;26.10;74.10;;;;;;5092861;28;19920;-34
2023/09/06 02:57:56;;;;;;;;;;;26.10;74.00;;;;;;5095537;28;19958;-34
2023/09/06 03:00:25;;;;;;;;;;;26.10;73.70;;;;;;5094297;28;19917;-34
2023/09/06 03:02:52;;;;;;;;;;;26.10;73.70;;;;;;5089415;28;19916;-34
2023/09/06 03:05:18;;;;;;;;;;;26.10;73.60;;;;;;5082952;28;19983;-34
2023/09/06 03:07:49;;;;;;;;;;;26.10;73.60;;;;;;5096764;28;19912;-34
2023/09/06 03:10:22;;;;;;;;;;;26.00;73.50;;;;;;5090865;28;19973;-34
2023/09/06 03:12:55;;;;;;;;;;;26.00;73.40;;;;;;5098508;28;19912;-34
2023/09/06 03:15:24;;;;;;;;;;;26.00;73.40;;;;;;5090561;28;19931;-34
2023/09/06 03:17:53;;;;;;;;;;;26.00;73.40;;;;;;5090749;28;19923;-34
2023/09/06 03:20:31;;;;;;;;;;;26.00;73.50;;;;;;5098106;28;19920;-34
2023/09/06 03:22:58;;;;;;;;;;;26.00;73.50;;;;;;5095141;28;19916;-34
2023/09/06 03:25:26;;;;;;;;;;;26.00;73.60;;;;;;5093871;28;19913;-34
2023/09/06 03:27:59;;;;;;;;;;;26.00;73.90;;;;;;5090675;28;20432;-34
2023/09/06 03:30:30;;;;;;;;;;;26.00;74.00;;;;;;5091378;28;19987;-34
2023/09/06 03:32:57;;;;;;;;;;;26.00;74.00;;;;;;5100214;28;19917;-34
2023/09/06 03:35:23;;;;;;;;;;;25.90;74.00;;;;;;5093249;28;19952;-34
2023/09/06 03:37:52;;;;;;;;;;;25.90;74.00;;;;;;5100727;28;19919;-35
2023/09/06 03:40:42;;;;;;;;;;;25.90;73.80;;;;;;5104003;28;19962;-33
2023/09/06 03:43:04;;;;;;;;;;;25.90;73.70;;;;;;5094356;28;19919;-34
2023/09/06 03:45:31;;;;;;;;;;;25.90;73.60;;;;;;5094401;28;19920;-34
2023/09/06 03:47:57;;;;;;;;;;;25.90;73.60;;;;;;5089042;28;19912;-34
2023/09/06 03:50:23;;;;;;;;;;;25.90;73.60;;;;;;5093563;28;19989;-34
2023/09/06 03:52:53;;;;;;;;;;;25.90;73.60;;;;;;5090568;28;19947;-34
2023/09/06 03:55:19;;;;;;;;;;;25.80;73.60;;;;;;5090182;28;19942;-34
2023/09/06 03:57:45;;;;;;;;;;;25.80;73.50;;;;;;5088244;28;19956;-34
2023/09/06 04:03:07;;;;;;;;;;;25.80;73.50;;;;;;5056092;28;20359;-34
2023/09/06 04:05:33;;;;;;;;;;;25.80;73.60;;;;;;5059442;28;19913;-34
2023/09/06 04:08:00;;;;;;;;;;;25.80;73.60;;;;;;5043371;28;19924;-34
2023/09/06 04:10:35;;;;;;;;;;;25.80;73.80;;;;;;5042782;28;19917;-34
2023/09/06 04:13:01;;;;;;;;;;;25.80;73.80;;;;;;5043205;28;20000;-34
2023/09/06 04:15:29;;;;;;;;;;;25.80;73.90;;;;;;5042448;28;19978;-34
2023/09/06 04:17:58;;;;;;;;;;;25.80;73.80;;;;;;5043213;28;20016;-34
2023/09/06 04:20:27;;;;;;;;;;;25.80;73.90;;;;;;5042391;28;19917;-34
2023/09/06 04:22:54;;;;;;;;;;;25.80;73.90;;;;;;5033869;28;19917;-34
2023/09/06 04:25:22;;;;;;;;;;;25.70;73.80;;;;;;5042276;28;19924;-34
2023/09/06 04:27:48;;;;;;;;;;;25.70;74.50;;;;;;5042724;28;19913;-34
2023/09/06 04:30:17;;;;;;;;;;;25.70;73.80;;;;;;5042785;28;19924;-34
2023/09/06 04:32:46;;;;;;;;;;;25.70;73.80;;;;;;5042549;28;19924;-34
2023/09/06 04:35:15;;;;;;;;;;;25.70;73.80;;;;;;5042508;28;19960;-34
2023/09/06 04:37:41;;;;;;;;;;;25.70;73.80;;;;;;5042079;28;19940;-34
2023/09/06 04:40:13;;;;;;;;;;;25.70;73.70;;;;;;5077352;28;19939;-34
2023/09/06 04:42:42;;;;;;;;;;;25.70;73.80;;;;;;5093283;28;19979;-34
2023/09/06 04:45:09;;;;;;;;;;;25.70;73.80;;;;;;5092979;28;19916;-34
2023/09/06 04:47:35;;;;;;;;;;;25.60;73.80;;;;;;5101134;28;19916;-34
2023/09/06 04:50:01;;;;;;;;;;;25.60;73.80;;;;;;5080146;28;19908;-34
2023/09/06 04:52:30;;;;;;;;;;;25.60;73.90;;;;;;5095447;28;19916;-33
2023/09/06 04:54:56;;;;;;;;;;;25.60;73.90;;;;;;5092860;28;19924;-34
2023/09/06 04:57:22;;;;;;;;;;;25.60;73.90;;;;;;5093602;28;19939;-34
2023/09/06 04:59:48;;;;;;;;;;;25.60;73.90;;;;;;5093247;28;19912;-34
2023/09/06 05:02:15;;;;;;;;;;;25.60;74.00;;;;;;5092595;28;19924;-34
2023/09/06 05:04:43;;;;;;;;;;;25.60;73.90;;;;;;5095396;28;19988;-34
2023/09/06 05:07:10;;;;;;;;;;;25.60;74.10;;;;;;5099566;28;19950;-34
2023/09/06 05:09:36;;;;;;;;;;;25.60;73.90;;;;;;5101191;28;19927;-34
2023/09/06 05:12:03;;;;;;;;;;;25.50;73.90;;;;;;5099443;28;19952;-34
2023/09/06 05:14:29;;;;;;;;;;;25.50;73.80;;;;;;5093373;28;19925;-34
2023/09/06 05:16:55;;;;;;;;;;;25.50;74.00;;;;;;5096406;28;19913;-34
2023/09/06 05:19:27;;;;;;;;;;;25.50;73.80;;;;;;5102692;28;19919;-34
2023/09/06 05:21:54;;;;;;;;;;;25.50;74.00;;;;;;5092819;28;19916;-34
2023/09/06 05:24:20;;;;;;;;;;;25.50;73.90;;;;;;5086410;28;19935;-34
2023/09/06 05:26:46;;;;;;;;;;;25.50;73.90;;;;;;5096251;28;20269;-34
2023/09/06 05:29:14;;;;;;;;;;;25.50;73.90;;;;;;5085767;28;19916;-34
2023/09/06 05:31:41;;;;;;;;;;;25.40;73.90;;;;;;5097417;28;19913;-34
2023/09/06 05:34:06;;;;;;;;;;;25.40;73.90;;;;;;5086935;28;19921;-34
2023/09/06 05:36:32;;;;;;;;;;;25.40;73.90;;;;;;5089308;28;20296;-34
2023/09/06 05:38:58;;;;;;;;;;;25.40;73.90;;;;;;5085639;28;19935;-34
2023/09/06 05:41:24;;;;;;;;;;;25.40;74.00;;;;;;5092637;28;19919;-34
2023/09/06 05:43:50;;;;;;;;;;;25.40;74.70;;;;;;5085588;28;19916;-34
2023/09/06 05:46:16;;;;;;;;;;;25.40;74.00;;;;;;5098975;28;19923;-36
2023/09/06 05:48:42;;;;;;;;;;;25.40;74.10;;;;;;5092602;28;19924;-34
2023/09/06 05:51:08;;;;;;;;;;;25.40;74.00;;;;;;5092640;28;19917;-34
2023/09/06 05:53:34;;;;;;;;;;;25.40;74.10;;;;;;5085715;28;19916;-34
2023/09/06 05:56:00;;;;;;;;;;;25.40;74.10;;;;;;5094406;28;19923;-34
2023/09/06 05:58:26;;;;;;;;;;;25.40;74.80;;;;;;5086864;28;19924;-34
2023/09/06 06:00:55;;;;;;;;;;;25.30;74.00;;;;;;5091045;28;19921;-35
2023/09/06 06:03:23;;;;;;;;;;;25.30;74.00;;;;;;5092865;28;20369;-35
2023/09/06 06:05:49;;;;;;;;;;;25.30;74.10;;;;;;5096069;28;19916;-34
2023/09/06 06:08:15;;;;;;;;;;;25.30;74.10;;;;;;5089348;28;19971;-35
2023/09/06 06:10:41;;;;;;;;;;;25.30;74.00;;;;;;5092301;28;19983;-35
2023/09/06 06:13:08;;;;;;;;;;;25.30;74.00;;;;;;5066891;28;19923;-34
2023/09/06 06:15:34;;;;;;;;;;;25.30;74.10;;;;;;5083843;28;19995;-34
2023/09/06 06:18:00;;;;;;;;;;;25.20;74.10;;;;;;5089048;28;19912;-35
2023/09/06 06:20:26;;;;;;;;;;;25.20;74.10;;;;;;5085165;28;19931;-35
2023/09/06 06:22:52;;;;;;;;;;;25.20;74.00;;;;;;5101990;28;20263;-35
2023/09/06 06:25:18;;;;;;;;;;;25.20;74.20;;;;;;5095402;28;19912;-35
2023/09/06 06:27:44;;;;;;;;;;;25.20;74.10;;;;;;5100904;28;19924;-35
2023/09/06 06:30:11;;;;;;;;;;;25.20;74.20;;;;;;5096779;28;19956;-35
2023/09/06 06:32:37;;;;;;;;;;;25.20;74.10;;;;;;5098551;28;19977;-34
2023/09/06 06:35:06;;;;;;;;;;;25.20;74.20;;;;;;5099961;28;19924;-34
2023/09/06 06:37:32;;;;;;;;;;;25.20;74.20;;;;;;5094471;28;19923;-34
2023/09/06 06:40:01;;;;;;;;;;;25.20;74.20;;;;;;5088804;28;19912;-34
2023/09/06 06:42:27;;;;;;;;;;;25.20;74.20;;;;;;5092802;28;19956;-34
2023/09/06 06:44:53;;;;;;;;;;;25.20;74.20;;;;;;5087458;28;19923;-34
2023/09/06 06:47:19;;;;;;;;;;;25.10;74.20;;;;;;5101187;28;19913;-34
2023/09/06 06:49:45;;;;;;;;;;;25.10;74.10;;;;;;5101372;28;19913;-34
2023/09/06 06:52:11;;;;;;;;;;;25.10;74.20;;;;;;5076827;28;19916;-34
2023/09/06 06:54:39;;;;;;;;;;;25.10;74.20;;;;;;5094311;28;19954;-34
2023/09/06 06:57:05;;;;;;;;;;;25.10;74.20;;;;;;5096964;28;19916;-34
2023/09/06 06:59:31;;;;;;;;;;;25.10;74.20;;;;;;5117167;28;19951;-34
2023/09/06 07:01:56;;;;;;;;;;;25.00;74.20;;;;;;5091825;28;19967;-34
2023/09/06 07:04:22;;;;;;;;;;;25.00;74.30;;;;;;5091095;28;19923;-34
2023/09/06 07:06:49;;;;;;;;;;;25.00;74.30;;;;;;5082858;28;20288;-34
2023/09/06 07:09:14;;;;;;;;;;;25.00;74.30;;;;;;5092114;28;19916;-34
2023/09/06 07:11:40;;;;;;;;;;;25.00;74.20;;;;;;5092803;28;20002;-34
2023/09/06 07:14:06;;;;;;;;;;;25.00;74.20;;;;;;5094204;28;19928;-34
2023/09/06 07:16:33;;;;;;;;;;;25.00;74.30;;;;;;5089443;28;19916;-34
2023/09/06 07:18:59;;;;;;;;;;;25.00;74.30;;;;;;5094053;28;19916;-34
2023/09/06 07:21:26;;;;;;;;;;;25.00;74.40;;;;;;5087402;28;19913;-34
2023/09/06 07:23:52;;;;;;;;;;;25.00;74.30;;;;;;5086849;28;19917;-34
2023/09/06 07:26:17;;;;;;;;;;;25.00;74.20;;;;;;5094434;28;19926;-34
2023/09/06 07:28:44;;;;;;;;;;;25.00;74.30;;;;;;5096510;28;20660;-34
2023/09/06 07:31:10;;;;;;;;;;;24.90;74.30;;;;;;5091708;28;20377;-34
2023/09/06 07:33:36;;;;;;;;;;;24.90;74.30;;;;;;5098413;28;19924;-34
2023/09/06 07:36:02;;;;;;;;;;;24.90;74.30;;;;;;5093366;28;19959;-35
2023/09/06 07:38:28;;;;;;;;;;;24.90;74.30;;;;;;5089431;28;20034;-34
2023/09/06 07:41:16;;;;;;;;;;;24.90;74.30;;;;;;5020180;28;19918;-34
2023/09/06 07:43:41;;;;;;;;;;;24.90;74.50;;;;;;5023229;28;19917;-35
2023/09/06 07:46:08;;;;;;;;;;;24.90;74.40;;;;;;5007377;28;19948;-34
2023/09/06 07:48:35;;;;;;;;;;;24.90;74.40;;;;;;5023324;28;19909;-34
2023/09/06 07:51:04;;;;;;;;;;;24.80;74.40;;;;;;5024039;28;19920;-34
2023/09/06 07:53:29;;;;;;;;;;;24.80;74.30;;;;;;5006838;28;19948;-34
2023/09/06 07:55:55;;;;;;;;;;;24.80;74.30;;;;;;5007491;28;19933;-35
2023/09/06 07:58:21;;;;;;;;;;;24.80;74.40;;;;;;5023338;28;19914;-34
2023/09/06 08:00:47;;;;;;;;;;;24.80;74.40;;;;;;5019622;28;19952;-34
2023/09/06 08:03:14;;;;;;;;;;;24.80;74.40;;;;;;5023744;28;19921;-34
2023/09/06 08:05:40;;;;;;;;;;;24.80;74.40;;;;;;5023154;28;19914;-34
2023/09/06 08:08:06;;;;;;;;;;;24.80;74.30;;;;;;5023299;28;19914;-34
2023/09/06 08:10:33;;;;;;;;;;;24.80;74.40;;;;;;5023237;28;19917;-34
2023/09/06 08:12:59;;;;;;;;;;;24.80;74.50;;;;;;5006676;28;19920;-34
2023/09/06 08:15:25;;;;;;;;;;;24.70;74.40;;;;;;5023155;28;19922;-34
2023/09/06 08:17:51;;;;;;;;;;;24.70;74.50;;;;;;5036498;28;19985;-35
2023/09/06 08:20:17;;;;;;;;;;;24.80;74.60;;;;;;5094566;28;19975;-34
2023/09/06 08:22:44;;;;;;;;;;;24.70;74.50;;;;;;5093470;28;19916;-33
2023/09/06 08:25:12;;;;;;;;;;;24.70;74.50;;;;;;5087354;28;19915;-34
2023/09/06 08:27:38;;;;;;;;;;;24.70;74.50;;;;;;5109952;28;19916;-33
2023/09/06 08:30:04;;;;;;;;;;;24.70;74.60;;;;;;5101385;28;20280;-34
2023/09/06 08:32:30;;;;;;;;;;;24.70;74.50;;;;;;5095247;28;19916;-34
2023/09/06 08:34:57;;;;;;;;;;;24.60;74.50;;;;;;5090579;28;19929;-34
2023/09/06 08:37:23;;;;;;;;;;;24.70;74.60;;;;;;5096607;28;19912;-34
2023/09/06 08:39:49;;;;;;;;;;;24.70;74.60;;;;;;5093285;28;19956;-34
2023/09/06 08:42:15;;;;;;;;;;;24.60;74.50;;;;;;5086884;28;19948;-34
2023/09/06 08:44:41;;;;;;;;;;;24.60;74.60;;;;;;5099915;28;19913;-34
2023/09/06 08:47:07;;;;;;;;;;;24.60;74.50;;;;;;5092231;28;19963;-34
2023/09/06 08:49:33;;;;;;;;;;;24.60;74.70;;;;;;5087264;28;19916;-34
2023/09/06 08:51:59;;;;;;;;;;;24.60;74.60;;;;;;5088675;28;19913;-34
2023/09/06 08:54:25;;;;;;;;;;;24.60;74.60;;;;;;5086585;28;20289;-34
2023/09/06 08:56:54;;;;;;;;;;;24.60;74.60;;;;;;5111883;28;19916;-34
2023/09/06 08:59:20;;;;;;;;;;;24.60;74.60;;;;;;5089148;28;19919;-35
2023/09/06 09:01:45;;;;;;;;;;;24.60;74.60;;;;;;5094441;28;19916;-33
2023/09/06 09:04:12;;;;;;;;;;;24.50;74.60;;;;;;5102734;28;19922;-34
2023/09/06 09:06:44;;;;;;;;;;;24.50;74.70;;;;;;5091137;28;19939;-34
2023/09/06 09:09:16;;;;;;;;;;;24.50;74.70;;;;;;5101759;28;19912;-34
2023/09/06 09:11:46;;;;;;;;;;;24.50;74.70;;;;;;5100159;28;19939;-34
2023/09/06 09:14:19;;;;;;;;;;;24.50;74.70;;;;;;5091979;28;19998;-34
2023/09/06 09:16:47;;;;;;;;;;;24.50;74.70;;;;;;5087117;28;20293;-34
2023/09/06 09:19:13;;;;;;;;;;;24.50;74.70;;;;;;5114172;28;19912;-34
2023/09/06 09:21:40;;;;;;;;;;;24.50;74.70;;;;;;5087180;28;19927;-34
2023/09/06 09:24:06;;;;;;;;;;;24.50;74.70;;;;;;5106071;28;19922;-34
2023/09/06 09:26:33;;;;;;;;;;;24.40;74.70;;;;;;5095632;28;19952;-34
2023/09/06 09:29:03;;;;;;;;;;;24.40;74.60;;;;;;5097056;28;19974;-34
2023/09/06 09:31:29;;;;;;;;;;;24.50;74.80;;;;;;5094407;28;19912;-33
2023/09/06 09:33:55;;;;;;;;;;;24.40;74.60;;;;;;5101973;28;19920;-34
2023/09/06 09:36:22;;;;;;;;;;;24.40;74.60;;;;;;5094595;28;19920;-34
2023/09/06 09:38:51;;;;;;;;;;;24.40;74.70;;;;;;5101544;28;20390;-34
2023/09/06 09:41:16;;;;;;;;;;;24.40;74.80;;;;;;5102996;28;19920;-34
2023/09/06 09:43:42;;;;;;;;;;;24.40;74.80;;;;;;5093043;28;19962;-34
2023/09/06 09:46:09;;;;;;;;;;;24.30;74.80;;;;;;5097361;28;19916;-34
2023/09/06 09:48:35;;;;;;;;;;;24.30;74.80;;;;;;5086770;28;20659;-34
2023/09/06 09:51:01;;;;;;;;;;;24.30;74.70;;;;;;5089781;28;19919;-34
2023/09/06 09:53:27;;;;;;;;;;;24.30;74.80;;;;;;5101003;28;20424;-33
2023/09/06 09:55:53;;;;;;;;;;;24.30;74.80;;;;;;5101848;28;19928;-34
2023/09/06 09:58:19;;;;;;;;;;;24.30;74.90;;;;;;5093136;28;20744;-34
2023/09/06 10:00:46;;;;;;;;;;;24.30;74.80;;;;;;5093754;28;19920;-34
2023/09/06 10:03:13;;;;;;;;;;;24.30;74.80;;;;;;5109680;28;20406;-34
2023/09/06 10:05:39;;;;;;;;;;;24.30;74.90;;;;;;5089205;28;19959;-34
2023/09/06 10:08:11;;;;;;;;;;;24.30;74.80;;;;;;5100475;28;19919;-34
2023/09/06 10:10:40;;;;;;;;;;;24.30;74.90;;;;;;5075739;28;19960;-34
2023/09/06 10:13:08;;;;;;;;;;;24.30;74.90;;;;;;5095041;28;19923;-34
2023/09/06 10:15:34;;;;;;;;;;;24.30;74.90;;;;;;5093904;28;19924;-34
2023/09/06 10:18:00;;;;;;;;;;;24.20;74.90;;;;;;5100208;28;19912;-34
2023/09/06 10:20:27;;;;;;;;;;;24.20;74.90;;;;;;5114177;28;19927;-34
2023/09/06 10:22:56;;;;;;;;;;;24.20;74.80;;;;;;5106433;28;20447;-33
2023/09/06 10:25:22;;;;;;;;;;;24.20;74.90;;;;;;5091744;28;19916;-34
2023/09/06 10:27:48;;;;;;;;;;;24.20;74.90;;;;;;5098554;28;19923;-34
2023/09/06 10:30:20;;;;;;;;;;;24.20;74.90;;;;;;5097539;28;19912;-34
2023/09/06 10:32:46;;;;;;;;;;;24.20;75.00;;;;;;5094213;28;19919;-34
2023/09/06 10:35:25;;;;;;;;;;;24.20;75.00;;;;;;5083490;28;19928;-34
2023/09/06 10:38:07;;;;;;;;;;;24.20;75.00;;;;;;5109216;28;20317;-33
2023/09/06 10:40:49;;;;;;;;;;;24.20;75.00;;;;;;5092887;28;19919;-34
2023/09/06 10:43:28;;;;;;;;;;;24.10;75.00;;;;;;5094935;28;19939;-34
2023/09/06 10:45:57;;;;;;;;;;;24.10;74.90;;;;;;5094394;28;19916;-34
2023/09/06 10:48:23;;;;;;;;;;;24.10;75.00;;;;;;5087013;28;19924;-34
2023/09/06 10:51:08;;;;;;;;;;;24.10;75.00;;;;;;5098203;28;19922;-34
2023/09/06 10:53:34;;;;;;;;;;;24.10;75.00;;;;;;5090654;28;19919;-34
2023/09/06 10:56:02;;;;;;;;;;;24.10;75.00;;;;;;5085748;28;19955;-34
2023/09/06 10:58:29;;;;;;;;;;;24.10;75.10;;;;;;5088150;28;19924;-34
2023/09/06 11:01:13;;;;;;;;;;;24.10;75.00;;;;;;5086992;28;19934;-34
2023/09/06 11:03:40;;;;;;;;;;;24.10;75.10;;;;;;5084348;28;19920;-33
2023/09/06 11:06:06;;;;;;;;;;;24.10;75.20;;;;;;5095161;28;19916;-34
2023/09/06 11:08:32;;;;;;;;;;;24.00;75.10;;;;;;5091297;28;19932;-34
2023/09/06 11:11:01;;;;;;;;;;;24.00;75.10;;;;;;5087923;28;19967;-34
2023/09/06 11:13:29;;;;;;;;;;;24.00;75.00;;;;;;5093324;28;19924;-34
2023/09/06 11:15:55;;;;;;;;;;;24.00;75.10;;;;;;5072573;28;19928;-34
2023/09/06 11:18:21;;;;;;;;;;;24.00;75.00;;;;;;5084001;28;19917;-34
2023/09/06 11:20:47;;;;;;;;;;;24.00;75.10;;;;;;5098529;28;19920;-34
2023/09/06 11:23:13;;;;;;;;;;;24.00;75.10;;;;;;5091245;28;19920;-34
2023/09/06 11:25:39;;;;;;;;;;;24.00;75.10;;;;;;5083814;28;19920;-35
2023/09/06 11:28:33;;;;;;;;;;;24.00;75.20;;;;;;5088430;28;19944;-35
2023/09/06 11:31:00;;;;;;;;;;;24.00;75.10;;;;;;5080383;28;19916;-36
2023/09/06 11:33:29;;;;;;;;;;;24.00;75.20;;;;;;5100496;28;20492;-35
2023/09/06 11:35:58;;;;;;;;;;;23.90;75.10;;;;;;5088878;28;19920;-35
2023/09/06 11:38:28;;;;;;;;;;;24.00;75.20;;;;;;5088210;28;19988;-35
2023/09/06 11:40:55;;;;;;;;;;;24.00;75.20;;;;;;5083580;28;19939;-35
2023/09/06 11:43:23;;;;;;;;;;;23.90;75.20;;;;;;5097159;28;19930;-35
2023/09/06 11:45:53;;;;;;;;;;;23.90;75.20;;;;;;5096085;28;19947;-34
2023/09/06 11:48:25;;;;;;;;;;;23.90;75.20;;;;;;5083100;28;19916;-34
2023/09/06 11:50:58;;;;;;;;;;;23.90;75.30;;;;;;5086623;28;19912;-35
2023/09/06 11:53:25;;;;;;;;;;;23.90;75.30;;;;;;5107072;28;19913;-34
2023/09/06 11:55:52;;;;;;;;;;;23.90;75.30;;;;;;5093809;28;19992;-35
2023/09/06 11:58:20;;;;;;;;;;;23.90;75.30;;;;;;5102341;28;19912;-35
2023/09/06 12:00:47;;;;;;;;;;;23.80;75.30;;;;;;5079394;28;19973;-35
2023/09/06 12:03:19;;;;;;;;;;;23.90;75.30;;;;;;5102151;28;19908;-35
2023/09/06 12:05:45;;;;;;;;;;;23.80;75.30;;;;;;5090743;28;19917;-35
2023/09/06 12:08:17;;;;;;;;;;;23.90;75.30;;;;;;5096558;28;19920;-35
2023/09/06 12:10:49;;;;;;;;;;;23.90;75.50;;;;;;5096527;28;19954;-36
2023/09/06 12:13:16;;;;;;;;;;;23.80;75.30;;;;;;5094484;28;19912;-35
2023/09/06 12:15:43;;;;;;;;;;;23.80;75.30;;;;;;5095527;28;20035;-35
2023/09/06 12:18:09;;;;;;;;;;;23.80;75.30;;;;;;5098547;28;19912;-35
2023/09/06 12:20:35;;;;;;;;;;;23.80;75.40;;;;;;5087967;28;20425;-35
2023/09/06 12:23:00;;;;;;;;;;;23.80;76.10;;;;;;5099744;28;19913;-35
2023/09/06 12:25:26;;;;;;;;;;;23.80;75.40;;;;;;5101213;28;19922;-34
2023/09/06 12:27:52;;;;;;;;;;;23.80;75.40;;;;;;5104686;28;20368;-35
2023/09/06 12:30:18;;;;;;;;;;;23.80;76.20;;;;;;5102194;28;19912;-34
2023/09/06 12:32:44;;;;;;;;;;;23.80;75.50;;;;;;5089523;28;19916;-35
2023/09/06 12:35:10;;;;;;;;;;;23.80;75.60;;;;;;5104296;28;19943;-35
2023/09/06 12:37:39;;;;;;;;;;;23.80;75.50;;;;;;5097322;28;20404;-34
2023/09/06 12:40:13;;;;;;;;;;;23.80;75.60;;;;;;5090856;28;19916;-34
2023/09/06 12:42:42;;;;;;;;;;;23.80;75.60;;;;;;5101949;28;19920;-35
2023/09/06 12:45:09;;;;;;;;;;;23.80;75.60;;;;;;5103671;28;19916;-35
2023/09/06 12:47:36;;;;;;;;;;;23.80;75.60;;;;;;5094059;28;19916;-35
2023/09/06 12:50:04;;;;;;;;;;;23.80;75.60;;;;;;5074713;28;19923;-35
2023/09/06 12:52:30;;;;;;;;;;;23.70;75.60;;;;;;5100475;28;19916;-35
2023/09/06 12:54:56;;;;;;;;;;;23.80;75.70;;;;;;5082249;28;19939;-34
2023/09/06 12:57:22;;;;;;;;;;;23.70;75.70;;;;;;5088656;28;20300;-35
2023/09/06 12:59:48;;;;;;;;;;;23.70;75.70;;;;;;5096952;28;19912;-34
2023/09/06 13:02:13;;;;;;;;;;;23.70;75.70;;;;;;5089881;28;19916;-35
2023/09/06 13:04:39;;;;;;;;;;;23.70;75.70;;;;;;5087213;28;20443;-35
2023/09/06 13:07:05;;;;;;;;;;;23.70;75.80;;;;;;5092169;28;19916;-34
2023/09/06 13:09:31;;;;;;;;;;;23.70;75.80;;;;;;5100288;28;19912;-35
2023/09/06 13:11:57;;;;;;;;;;;23.70;75.70;;;;;;5095783;28;19919;-35
2023/09/06 13:14:23;;;;;;;;;;;23.70;75.70;;;;;;5102682;28;19931;-35
2023/09/06 13:16:49;;;;;;;;;;;23.70;75.70;;;;;;5092787;28;19944;-35
2023/09/06 13:19:15;;;;;;;;;;;23.70;75.80;;;;;;5092735;28;19938;-35
2023/09/06 13:21:41;;;;;;;;;;;23.70;75.80;;;;;;5094147;28;19951;-35
2023/09/06 13:24:07;;;;;;;;;;;23.70;75.80;;;;;;5103393;28;19920;-35
2023/09/06 13:26:32;;;;;;;;;;;23.70;75.70;;;;;;5100534;28;19944;-34
2023/09/06 13:28:58;;;;;;;;;;;23.70;75.80;;;;;;5096424;28;19946;-35
2023/09/06 13:31:24;;;;;;;;;;;23.70;75.80;;;;;;5108280;28;19912;-34
2023/09/06 13:33:50;;;;;;;;;;;23.70;75.90;;;;;;5086688;28;19935;-35
2023/09/06 13:36:18;;;;;;;;;;;23.70;75.90;;;;;;5073759;28;19920;-35
2023/09/06 13:38:44;;;;;;;;;;;23.70;75.90;;;;;;5115867;28;20618;-35
2023/09/06 13:41:10;;;;;;;;;;;23.70;76.00;;;;;;5096432;28;19951;-34
2023/09/06 13:43:36;;;;;;;;;;;23.70;76.10;;;;;;5092480;28;19955;-34
2023/09/06 13:46:03;;;;;;;;;;;23.70;76.00;;;;;;5096997;28;19923;-34
2023/09/06 13:48:29;;;;;;;;;;;23.70;76.10;;;;;;5094143;28;19913;-34
2023/09/06 13:50:55;;;;;;;;;;;23.70;76.10;;;;;;5091897;28;19920;-35
2023/09/06 13:53:21;;;;;;;;;;;23.70;76.10;;;;;;5090228;28;19912;-35
2023/09/06 13:55:47;;;;;;;;;;;23.70;76.10;;;;;;5101768;28;19935;-35
2023/09/06 13:58:13;;;;;;;;;;;23.70;76.10;;;;;;5096219;28;19935;-35
2023/09/06 14:00:39;;;;;;;;;;;23.70;76.10;;;;;;5096520;28;19931;-35
2023/09/06 14:03:05;;;;;;;;;;;23.70;76.10;;;;;;5088322;28;19913;-35
2023/09/06 14:05:33;;;;;;;;;;;23.70;76.10;;;;;;5086379;28;19974;-35
2023/09/06 14:07:58;;;;;;;;;;;23.70;76.10;;;;;;5093845;28;19993;-35
2023/09/06 14:10:24;;;;;;;;;;;23.70;76.20;;;;;;5098923;28;20384;-35
2023/09/06 14:12:50;;;;;;;;;;;23.70;76.20;;;;;;5098897;28;19935;-35
2023/09/06 14:15:16;;;;;;;;;;;23.70;76.30;;;;;;5098657;28;19923;-35
2023/09/06 14:17:42;;;;;;;;;;;23.70;76.30;;;;;;5101209;28;19923;-35
2023/09/06 14:20:09;;;;;;;;;;;23.70;76.40;;;;;;5101997;28;19916;-35